Time;durP1;ratioP1;P1;durP2;ratioP2;P2;SDS_P1;SDS_P2;PMS_P1;PMS_P2;Temp;Humidity;BMP_temperature;BMP_pressure;BME280_temperature;BME280_humidity;BME280_pressure;Samples;Min_cycle;Max_cycle;Signal;HPM_P1;HPM_P2
2021/10/04 00:01:23;;;;;;;11.50;3.63;;;;;;;-145.50;100.00;65435.88;4996520;28;20096;-63
2021/10/04 00:03:50;;;;;;;12.93;3.70;;;;;;;-145.50;100.00;65435.88;4994081;28;20081;-63
2021/10/04 00:06:16;;;;;;;7.57;3.20;;;;;;;-145.50;100.00;65435.88;4988227;28;20054;-63
2021/10/04 00:08:43;;;;;;;13.73;3.78;;;;;;;-145.50;100.00;65435.88;4991413;28;20399;-63
2021/10/04 00:11:09;;;;;;;11.00;3.75;;;;;;;-145.50;100.00;65435.88;4990365;28;20369;-63
2021/10/04 00:13:36;;;;;;;9.88;3.60;;;;;;;-145.50;100.00;65435.88;4991594;28;20053;-61
2021/10/04 00:16:03;;;;;;;14.07;3.90;;;;;;;-145.50;100.00;65435.88;5008673;28;20110;-62
2021/10/04 00:18:30;;;;;;;13.73;5.03;;;;;;;-145.50;100.00;65435.88;4993565;28;20541;-63
2021/10/04 00:20:56;;;;;;;11.63;3.70;;;;;;;-145.50;100.00;65435.88;5004979;28;20050;-63
2021/10/04 00:23:23;;;;;;;13.63;3.10;;;;;;;-145.50;100.00;65435.88;4986131;28;20056;-63
2021/10/04 00:25:49;;;;;;;9.38;3.88;;;;;;;-145.50;100.00;65435.88;5011311;28;20064;-63
2021/10/04 00:28:16;;;;;;;11.93;4.00;;;;;;;-145.50;100.00;65435.88;5001756;28;20053;-63
2021/10/04 00:30:42;;;;;;;11.30;3.17;;;;;;;-145.50;100.00;65435.88;5004193;28;20054;-63
2021/10/04 00:33:09;;;;;;;14.43;3.83;;;;;;;-145.50;100.00;65435.88;5000236;28;20046;-63
2021/10/04 00:35:35;;;;;;;13.45;3.90;;;;;;;-145.50;100.00;65435.88;4983302;28;20046;-63
2021/10/04 00:38:03;;;;;;;12.80;3.78;;;;;;;-145.50;100.00;65435.88;4994221;28;20058;-62
2021/10/04 00:40:32;;;;;;;16.70;3.38;;;;;;;-145.50;100.00;65435.88;4994198;28;20153;-63
2021/10/04 00:42:59;;;;;;;12.07;3.63;;;;;;;-145.50;100.00;65435.88;4996408;28;20046;-63
2021/10/04 00:45:28;;;;;;;15.73;4.30;;;;;;;-145.50;100.00;65435.88;4993092;28;20796;-63
2021/10/04 00:47:55;;;;;;;10.50;3.95;;;;;;;-145.50;100.00;65435.88;4992541;28;20053;-63
2021/10/04 00:50:22;;;;;;;11.40;3.88;;;;;;;-145.50;100.00;65435.88;4988996;28;20470;-63
2021/10/04 00:53:10;;;;;;;15.30;4.10;;;;;;;-145.50;100.00;65435.88;4986287;28;20060;-63
2021/10/04 00:55:37;;;;;;;9.48;3.50;;;;;;;-145.50;100.00;65435.88;4996931;28;20463;-63
2021/10/04 00:58:05;;;;;;;13.73;3.58;;;;;;;-145.50;100.00;65435.88;4993427;28;20062;-63
2021/10/04 01:00:31;;;;;;;12.68;3.28;;;;;;;-145.50;100.00;65435.88;5007809;28;20064;-63
2021/10/04 01:02:59;;;;;;;10.25;3.35;;;;;;;-145.50;100.00;65435.88;4995399;28;20081;-63
2021/10/04 01:05:30;;;;;;;10.10;3.85;;;;;;;-145.50;100.00;65435.88;4980631;28;20399;-63
2021/10/04 01:07:56;;;;;;;12.27;3.28;;;;;;;-145.50;100.00;65435.88;4997173;28;20514;-63
2021/10/04 01:10:23;;;;;;;9.77;3.15;;;;;;;-145.50;100.00;65435.88;4989125;28;20133;-63
2021/10/04 01:12:51;;;;;;;10.27;2.95;;;;;;;-145.50;100.00;65435.88;4999812;28;20056;-64
2021/10/04 01:15:19;;;;;;;9.27;2.88;;;;;;;-145.50;100.00;65435.88;4999106;28;20562;-63
2021/10/04 01:17:46;;;;;;;;;;;;;;;-145.50;100.00;65435.88;4993870;28;20052;-63
2021/10/04 01:20:25;;;;;;;14.02;3.38;;;;;;;-145.50;100.00;65435.88;4995819;28;19925;-63
2021/10/04 01:22:53;;;;;;;10.43;2.88;;;;;;;-145.50;100.00;65435.88;4996213;28;20061;-63
2021/10/04 01:25:20;;;;;;;10.20;3.15;;;;;;;-145.50;100.00;65435.88;4996109;28;20142;-63
2021/10/04 01:27:49;;;;;;;8.25;2.75;;;;;;;-145.50;100.00;65435.88;4991979;28;20050;-63
2021/10/04 01:30:18;;;;;;;16.88;3.95;;;;;;;-145.50;100.00;65435.88;4999164;28;20054;-63
2021/10/04 01:32:46;;;;;;;9.82;2.83;;;;;;;-145.50;100.00;65435.88;4987748;28;20058;-63
2021/10/04 01:35:13;;;;;;;14.98;2.55;;;;;;;-145.50;100.00;65435.88;4997641;28;20056;-63
2021/10/04 01:37:40;;;;;;;7.95;2.40;;;;;;;-145.50;100.00;65435.88;4993376;28;20072;-63
2021/10/04 01:40:08;;;;;;;7.60;2.40;;;;;;;-145.50;100.00;65435.88;4992861;28;20061;-63
2021/10/04 01:42:35;;;;;;;7.15;2.42;;;;;;;-145.50;100.00;65435.88;4991552;28;20054;-63
2021/10/04 01:45:04;;;;;;;7.35;2.05;;;;;;;-145.50;100.00;65435.88;4997924;28;20054;-63
2021/10/04 01:47:31;;;;;;;10.52;2.67;;;;;;;-145.50;100.00;65435.88;5004453;28;20052;-63
2021/10/04 01:49:57;;;;;;;10.95;2.85;;;;;;;-145.50;100.00;65435.88;4992272;28;20054;-63
2021/10/04 01:52:24;;;;;;;9.52;2.33;;;;;;;-145.50;100.00;65435.88;5008167;28;20056;-63
2021/10/04 01:54:53;;;;;;;;;;;;;;;-145.50;100.00;65435.88;4998305;28;20539;-63
2021/10/04 01:57:19;;;;;;;8.05;2.35;;;;;;;-145.50;100.00;65435.88;4984724;28;19926;-63
2021/10/04 01:59:46;;;;;;;9.35;2.63;;;;;;;-145.50;100.00;65435.88;4999524;28;20369;-63
2021/10/04 02:02:12;;;;;;;8.90;2.10;;;;;;;-145.50;100.00;65435.88;4984239;28;20069;-63
2021/10/04 02:04:39;;;;;;;5.15;2.03;;;;;;;-145.50;100.00;65435.88;4992951;28;20097;-63
2021/10/04 02:07:05;;;;;;;11.25;2.88;;;;;;;-145.50;100.00;65435.88;4986675;28;20050;-63
2021/10/04 02:09:32;;;;;;;8.73;2.80;;;;;;;-145.50;100.00;65435.88;4991197;28;20054;-63
2021/10/04 02:11:58;;;;;;;16.23;2.20;;;;;;;-145.50;100.00;65435.88;4989296;28;20046;-63
2021/10/04 02:14:25;;;;;;;9.18;2.40;;;;;;;-145.50;100.00;65435.88;4996213;28;20133;-63
2021/10/04 02:16:51;;;;;;;11.43;2.00;;;;;;;-145.50;100.00;65435.88;5000685;28;20054;-63
2021/10/04 02:19:18;;;;;;;13.05;2.53;;;;;;;-145.50;100.00;65435.88;4993135;28;20933;-63
2021/10/04 02:21:44;;;;;;;6.43;2.10;;;;;;;-145.50;100.00;65435.88;4993304;28;20050;-63
2021/10/04 02:24:12;;;;;;;9.38;1.98;;;;;;;-145.50;100.00;65435.88;4987032;28;20057;-63
2021/10/04 02:26:41;;;;;;;8.50;2.10;;;;;;;-145.50;100.00;65435.88;4996810;28;20137;-63
2021/10/04 02:29:08;;;;;;;10.80;2.40;;;;;;;-145.50;100.00;65435.88;4990899;28;20054;-63
2021/10/04 02:31:34;;;;;;;11.95;2.42;;;;;;;-145.50;100.00;65435.88;4993103;28;20054;-62
2021/10/04 02:34:01;;;;;;;6.97;1.67;;;;;;;-145.50;100.00;65435.88;4997361;28;20049;-63
2021/10/04 02:36:27;;;;;;;12.73;2.60;;;;;;;-145.50;100.00;65435.88;4990111;28;20054;-63
2021/10/04 02:38:54;;;;;;;15.50;3.42;;;;;;;-145.50;100.00;65435.88;4989360;28;20057;-63
2021/10/04 02:41:20;;;;;;;7.78;2.80;;;;;;;-145.50;100.00;65435.88;4987525;28;20441;-63
2021/10/04 02:43:47;;;;;;;10.15;2.45;;;;;;;-145.50;100.00;65435.88;4997617;28;20050;-63
2021/10/04 02:46:13;;;;;;;4.75;2.08;;;;;;;-145.50;100.00;65435.88;4988261;28;20054;-62
2021/10/04 02:48:40;;;;;;;10.75;3.10;;;;;;;-145.50;100.00;65435.88;4993541;28;20046;-62
2021/10/04 02:51:06;;;;;;;8.38;2.35;;;;;;;-145.50;100.00;65435.88;4998648;28;20137;-62
2021/10/04 02:53:33;;;;;;;10.68;2.08;;;;;;;-145.50;100.00;65435.88;4988173;28;20058;-61
2021/10/04 02:55:59;;;;;;;9.00;2.15;;;;;;;-145.50;100.00;65435.88;4990694;28;20054;-62
2021/10/04 02:58:26;;;;;;;6.65;2.22;;;;;;;-145.50;100.00;65435.88;4990026;28;20047;-63
2021/10/04 03:00:53;;;;;;;12.13;2.13;;;;;;;-145.50;100.00;65435.88;4990621;28;20062;-63
2021/10/04 03:03:19;;;;;;;7.30;2.30;;;;;;;-145.50;100.00;65435.88;4994409;28;20112;-63
2021/10/04 03:05:47;;;;;;;9.38;2.13;;;;;;;-145.50;100.00;65435.88;4994179;28;20108;-63
2021/10/04 03:08:14;;;;;;;8.90;2.28;;;;;;;-145.50;100.00;65435.88;4994161;28;20077;-63
2021/10/04 03:10:41;;;;;;;8.20;2.05;;;;;;;-145.50;100.00;65435.88;4994327;28;20096;-63
2021/10/04 03:13:07;;;;;;;8.35;2.10;;;;;;;-145.50;100.00;65435.88;4991210;28;20050;-63
2021/10/04 03:15:34;;;;;;;7.65;1.98;;;;;;;-145.50;100.00;65435.88;4997834;28;20050;-63
2021/10/04 03:18:01;;;;;;;9.98;2.10;;;;;;;-145.50;100.00;65435.88;4992078;28;20046;-62
2021/10/04 03:20:27;;;;;;;4.88;1.70;;;;;;;-145.50;100.00;65435.88;4990234;28;20410;-62
2021/10/04 03:22:54;;;;;;;12.13;2.40;;;;;;;-145.50;100.00;65435.88;4990840;28;20053;-63
2021/10/04 03:25:22;;;;;;;7.65;2.15;;;;;;;-145.50;100.00;65435.88;4998036;28;20076;-63
2021/10/04 03:27:49;;;;;;;10.60;2.35;;;;;;;-145.50;100.00;65435.88;4990157;28;20057;-63
2021/10/04 03:30:15;;;;;;;7.55;2.20;;;;;;;-145.50;100.00;65435.88;4986203;28;20050;-63
2021/10/04 03:32:43;;;;;;;12.35;1.95;;;;;;;-145.50;100.00;65435.88;4987375;28;20050;-62
2021/10/04 03:35:10;;;;;;;9.00;1.80;;;;;;;-145.50;100.00;65435.88;4993511;28;21344;-63
2021/10/04 03:37:57;;;;;;;6.88;1.83;;;;;;;-145.50;100.00;65435.88;4996533;28;20056;-63
2021/10/04 03:40:23;;;;;;;10.85;2.67;;;;;;;-145.50;100.00;65435.88;5007191;28;20058;-63
2021/10/04 03:42:50;;;;;;;8.55;1.80;;;;;;;-145.50;100.00;65435.88;5006507;28;20957;-63
2021/10/04 03:45:17;;;;;;;9.27;2.10;;;;;;;-145.50;100.00;65435.88;4983726;28;20046;-61
2021/10/04 03:47:44;;;;;;;5.85;1.70;;;;;;;-145.50;100.00;65435.88;4997121;28;20054;-63
2021/10/04 03:50:13;;;;;;;6.35;2.00;;;;;;;-145.50;100.00;65435.88;4996559;28;20046;-63
2021/10/04 03:52:40;;;;;;;10.32;2.20;;;;;;;-145.50;100.00;65435.88;4998246;28;20097;-63
2021/10/04 03:55:08;;;;;;;9.25;2.08;;;;;;;-145.50;100.00;65435.88;4988450;28;20415;-62
2021/10/04 03:57:37;;;;;;;7.80;2.28;;;;;;;-145.50;100.00;65435.88;4999760;28;20069;-63
2021/10/04 04:00:06;;;;;;;12.18;2.45;;;;;;;-145.50;100.00;65435.88;5002237;28;20059;-63
2021/10/04 04:02:33;;;;;;;8.48;1.60;;;;;;;-145.50;100.00;65435.88;4990789;28;20065;-63
2021/10/04 04:04:59;;;;;;;10.02;2.10;;;;;;;-145.50;100.00;65435.88;4996421;28;20499;-62
2021/10/04 04:07:26;;;;;;;5.40;1.80;;;;;;;-145.50;100.00;65435.88;4990051;28;20053;-63
2021/10/04 04:09:52;;;;;;;13.30;3.17;;;;;;;-145.50;100.00;65435.88;4995429;28;20064;-63
2021/10/04 04:12:19;;;;;;;7.20;2.00;;;;;;;-145.50;100.00;65435.88;4987342;28;20046;-63
2021/10/04 04:14:45;;;;;;;10.65;2.00;;;;;;;-145.50;100.00;65435.88;4993522;28;20045;-63
2021/10/04 04:17:12;;;;;;;12.30;2.40;;;;;;;-145.50;100.00;65435.88;5006086;28;20454;-63
2021/10/04 04:19:38;;;;;;;6.18;2.60;;;;;;;-145.50;100.00;65435.88;4993792;28;20061;-63
2021/10/04 04:22:04;;;;;;;9.52;2.03;;;;;;;-145.50;100.00;65435.88;4995514;28;20475;-63
2021/10/04 04:24:31;;;;;;;6.03;1.70;;;;;;;-145.50;100.00;65435.88;4991290;28;20050;-63
2021/10/04 04:26:57;;;;;;;8.50;2.33;;;;;;;-145.50;100.00;65435.88;4993101;28;20050;-63
2021/10/04 04:29:24;;;;;;;9.15;1.90;;;;;;;-145.50;100.00;65435.88;4994027;28;20605;-63
2021/10/04 04:31:50;;;;;;;17.77;2.13;;;;;;;-145.50;100.00;65435.88;4997855;28;20518;-63
2021/10/04 04:34:17;;;;;;;8.45;1.98;;;;;;;-145.50;100.00;65435.88;4996206;28;20069;-63
2021/10/04 04:36:44;;;;;;;5.93;2.33;;;;;;;-145.50;100.00;65435.88;4990648;28;20096;-63
2021/10/04 04:39:10;;;;;;;10.80;2.13;;;;;;;-145.50;100.00;65435.88;4998242;28;20050;-63
2021/10/04 04:41:36;;;;;;;6.95;2.28;;;;;;;-145.50;100.00;65435.88;4985432;28;20116;-63
2021/10/04 04:44:03;;;;;;;6.20;2.13;;;;;;;-145.50;100.00;65435.88;4997681;28;20083;-63
2021/10/04 04:46:30;;;;;;;6.60;2.40;;;;;;;-145.50;100.00;65435.88;4999807;28;20767;-63
2021/10/04 04:48:56;;;;;;;6.35;1.90;;;;;;;-145.50;100.00;65435.88;5000532;28;20485;-63
2021/10/04 04:51:23;;;;;;;10.00;2.28;;;;;;;-145.50;100.00;65435.88;4994835;28;20153;-63
2021/10/04 04:53:49;;;;;;;7.90;1.90;;;;;;;-145.50;100.00;65435.88;4986224;28;20069;-63
2021/10/04 04:56:17;;;;;;;8.53;2.13;;;;;;;-145.50;100.00;65435.88;4991231;28;20057;-63
2021/10/04 04:58:43;;;;;;;10.57;2.33;;;;;;;-145.50;100.00;65435.88;4992363;28;20543;-63
2021/10/04 05:01:10;;;;;;;7.65;1.92;;;;;;;-145.50;100.00;65435.88;4994360;28;20056;-63
2021/10/04 05:03:36;;;;;;;5.53;2.30;;;;;;;-145.50;100.00;65435.88;4990507;28;20042;-63
2021/10/04 05:06:03;;;;;;;10.02;2.40;;;;;;;-145.50;100.00;65435.88;4994013;28;20095;-63
2021/10/04 05:08:29;;;;;;;14.77;2.50;;;;;;;-145.50;100.00;65435.88;4991996;28;20046;-63
2021/10/04 05:10:58;;;;;;;8.13;1.85;;;;;;;-145.50;100.00;65435.88;4983144;28;20145;-63
2021/10/04 05:13:25;;;;;;;4.85;1.70;;;;;;;-145.50;100.00;65435.88;4998939;28;20053;-63
2021/10/04 05:15:51;;;;;;;6.32;1.88;;;;;;;-145.50;100.00;65435.88;4987001;28;20054;-63
2021/10/04 05:18:18;;;;;;;8.48;1.90;;;;;;;-145.50;100.00;65435.88;4999732;28;20053;-63
2021/10/04 05:20:44;;;;;;;16.02;3.10;;;;;;;-145.50;100.00;65435.88;4988361;28;20057;-62
2021/10/04 05:23:11;;;;;;;5.60;1.90;;;;;;;-145.50;100.00;65435.88;4994048;28;20120;-63
2021/10/04 05:25:37;;;;;;;8.70;3.55;;;;;;;-145.50;100.00;65435.88;4996606;28;20072;-63
2021/10/04 05:28:04;;;;;;;5.65;2.20;;;;;;;-145.50;100.00;65435.88;4990128;28;20068;-63
2021/10/04 05:30:30;;;;;;;8.88;1.95;;;;;;;-145.50;100.00;65435.88;5002532;28;20163;-63
2021/10/04 05:32:56;;;;;;;9.57;2.15;;;;;;;-145.50;100.00;65435.88;4994760;28;20456;-63
2021/10/04 05:35:23;;;;;;;10.15;2.08;;;;;;;-145.50;100.00;65435.88;4993696;28;20054;-63
2021/10/04 05:37:49;;;;;;;5.15;2.15;;;;;;;-145.50;100.00;65435.88;4989492;28;20065;-63
2021/10/04 05:40:16;;;;;;;7.50;1.92;;;;;;;-145.50;100.00;65435.88;5009579;28;20056;-63
2021/10/04 05:42:42;;;;;;;7.07;1.98;;;;;;;-145.50;100.00;65435.88;4997631;28;20411;-63
2021/10/04 05:45:11;;;;;;;5.45;1.60;;;;;;;-145.50;100.00;65435.88;4992591;28;20050;-63
2021/10/04 05:47:38;;;;;;;8.93;2.28;;;;;;;-145.50;100.00;65435.88;4994111;28;20234;-63
2021/10/04 05:50:06;;;;;;;7.43;2.08;;;;;;;-145.50;100.00;65435.88;4983630;28;20441;-63
2021/10/04 05:52:33;;;;;;;7.80;2.30;;;;;;;-145.50;100.00;65435.88;4997803;28;20046;-63
2021/10/04 05:54:59;;;;;;;5.25;1.80;;;;;;;-145.50;100.00;65435.88;4988282;28;20061;-64
2021/10/04 05:57:26;;;;;;;5.75;2.20;;;;;;;-145.50;100.00;65435.88;4997077;28;20054;-63
2021/10/04 05:59:53;;;;;;;10.48;2.28;;;;;;;-145.50;100.00;65435.88;5002520;28;20058;-63
2021/10/04 06:02:19;;;;;;;6.88;2.13;;;;;;;-145.50;100.00;65435.88;4983155;28;20065;-64
2021/10/04 06:04:46;;;;;;;12.15;2.40;;;;;;;-145.50;100.00;65435.88;4990486;28;20064;-63
2021/10/04 06:07:12;;;;;;;4.65;2.30;;;;;;;-145.50;100.00;65435.88;4988163;28;20407;-63
2021/10/04 06:09:39;;;;;;;10.80;2.28;;;;;;;-145.50;100.00;65435.88;4990933;28;20046;-63
2021/10/04 06:12:05;;;;;;;12.25;1.80;;;;;;;-145.50;100.00;65435.88;4992907;28;20050;-63
2021/10/04 06:14:36;;;;;;;6.35;1.98;;;;;;;-145.50;100.00;65435.88;4999226;28;20042;-63
2021/10/04 06:17:02;;;;;;;21.42;3.75;;;;;;;-145.50;100.00;65435.88;4993601;28;20046;-63
2021/10/04 06:19:29;;;;;;;10.57;2.80;;;;;;;-145.50;100.00;65435.88;4992435;28;20137;-63
2021/10/04 06:21:55;;;;;;;7.10;2.08;;;;;;;-145.50;100.00;65435.88;4997070;28;20045;-63
2021/10/04 06:24:22;;;;;;;10.55;2.60;;;;;;;-145.50;100.00;65435.88;5000519;28;20489;-63
2021/10/04 06:26:48;;;;;;;9.05;2.10;;;;;;;-145.50;100.00;65435.88;4996591;28;20121;-63
2021/10/04 06:29:15;;;;;;;9.80;2.15;;;;;;;-145.50;100.00;65435.88;4990305;28;20050;-62
2021/10/04 06:31:41;;;;;;;11.73;2.85;;;;;;;-145.50;100.00;65435.88;4990561;28;20042;-63
2021/10/04 06:34:08;;;;;;;11.02;2.25;;;;;;;-145.50;100.00;65435.88;4991837;28;20065;-64
2021/10/04 06:36:34;;;;;;;9.40;2.28;;;;;;;-145.50;100.00;65435.88;4992014;28;20065;-64
2021/10/04 06:39:01;;;;;;;8.80;2.45;;;;;;;-145.50;100.00;65435.88;5006606;28;20056;-63
2021/10/04 06:41:27;;;;;;;5.78;2.40;;;;;;;-145.50;100.00;65435.88;4988537;28;20450;-63
2021/10/04 06:43:53;;;;;;;7.57;2.03;;;;;;;-145.50;100.00;65435.88;4996353;28;20059;-64
2021/10/04 06:46:20;;;;;;;7.55;2.13;;;;;;;-145.50;100.00;65435.88;4985317;28;20480;-64
2021/10/04 06:48:46;;;;;;;9.70;3.30;;;;;;;-145.50;100.00;65435.88;4988281;28;20128;-64
2021/10/04 06:51:13;;;;;;;18.27;4.97;;;;;;;-145.50;100.00;65435.88;4993729;28;20503;-63
2021/10/04 06:53:39;;;;;;;9.45;1.90;;;;;;;-145.50;100.00;65435.88;4987133;28;20069;-63
2021/10/04 06:56:06;;;;;;;9.65;2.53;;;;;;;-145.50;100.00;65435.88;4993777;28;20050;-63
2021/10/04 06:58:33;;;;;;;8.63;2.25;;;;;;;-145.50;100.00;65435.88;4980430;28;20073;-64
2021/10/04 07:01:00;;;;;;;9.75;1.95;;;;;;;-145.50;100.00;65435.88;4990215;28;20065;-63
2021/10/04 07:03:26;;;;;;;8.20;2.30;;;;;;;-145.50;100.00;65435.88;4993559;28;20054;-63
2021/10/04 07:05:53;;;;;;;9.45;2.22;;;;;;;-145.50;100.00;65435.88;4994710;28;20052;-63
2021/10/04 07:08:19;;;;;;;7.75;2.05;;;;;;;-145.50;100.00;65435.88;5004174;28;20049;-63
2021/10/04 07:10:47;;;;;;;6.97;1.90;;;;;;;-145.50;100.00;65435.88;4982402;28;20046;-63
2021/10/04 07:13:13;;;;;;;4.43;2.13;;;;;;;-145.50;100.00;65435.88;4994602;28;20411;-63
2021/10/04 07:15:40;;;;;;;9.05;2.13;;;;;;;-145.50;100.00;65435.88;4986076;28;20061;-63
2021/10/04 07:18:06;;;;;;;9.73;2.60;;;;;;;-145.50;100.00;65435.88;4991650;28;20054;-64
2021/10/04 07:20:33;;;;;;;9.85;2.22;;;;;;;-145.50;100.00;65435.88;4989706;28;20050;-63
2021/10/04 07:23:00;;;;;;;7.65;2.22;;;;;;;-145.50;100.00;65435.88;5001886;28;20795;-64
2021/10/04 07:25:27;;;;;;;5.82;1.85;;;;;;;-145.50;100.00;65435.88;4991202;28;20141;-63
2021/10/04 07:27:54;;;;;;;9.27;2.10;;;;;;;-145.50;100.00;65435.88;4983819;28;20046;-64
2021/10/04 07:30:20;;;;;;;11.48;2.30;;;;;;;-145.50;100.00;65435.88;4990891;28;20464;-64
2021/10/04 07:32:47;;;;;;;10.35;2.47;;;;;;;-145.50;100.00;65435.88;4986828;28;20061;-64
2021/10/04 07:35:14;;;;;;;20.85;2.60;;;;;;;-145.50;100.00;65435.88;4993909;28;20046;-63
2021/10/04 07:37:40;;;;;;;9.68;2.20;;;;;;;-145.50;100.00;65435.88;4987245;28;20810;-63
2021/10/04 07:40:08;;;;;;;7.55;2.22;;;;;;;-145.50;100.00;65435.88;4989258;28;20451;-64
2021/10/04 07:42:36;;;;;;;6.20;1.85;;;;;;;-145.50;100.00;65435.88;4997486;28;20057;-64
2021/10/04 07:45:03;;;;;;;7.97;1.83;;;;;;;-145.50;100.00;65435.88;4985899;28;20050;-64
2021/10/04 07:47:30;;;;;;;6.85;2.22;;;;;;;-145.50;100.00;65435.88;4996155;28;20047;-63
2021/10/04 07:49:56;;;;;;;14.07;2.20;;;;;;;-145.50;100.00;65435.88;4987766;28;20419;-64
2021/10/04 07:52:23;;;;;;;7.30;1.90;;;;;;;-145.50;100.00;65435.88;4991156;28;20065;-64
2021/10/04 07:54:49;;;;;;;8.85;1.90;;;;;;;-145.50;100.00;65435.88;4982772;28;20057;-64
2021/10/04 07:57:16;;;;;;;8.80;1.83;;;;;;;-145.50;100.00;65435.88;4992595;28;20141;-63
2021/10/04 07:59:42;;;;;;;7.20;1.80;;;;;;;-145.50;100.00;65435.88;4996165;28;20054;-64
2021/10/04 08:02:09;;;;;;;12.32;1.90;;;;;;;-145.50;100.00;65435.88;4989933;28;20042;-63
2021/10/04 08:04:37;;;;;;;8.60;1.95;;;;;;;-145.50;100.00;65435.88;4991856;28;20070;-63
2021/10/04 08:07:04;;;;;;;5.45;1.65;;;;;;;-145.50;100.00;65435.88;4983016;28;20176;-64
2021/10/04 08:09:31;;;;;;;6.30;2.05;;;;;;;-145.50;100.00;65435.88;4998743;28;20050;-64
2021/10/04 08:11:57;;;;;;;10.85;2.00;;;;;;;-145.50;100.00;65435.88;4986346;28;20396;-63
2021/10/04 08:14:24;;;;;;;7.93;2.30;;;;;;;-145.50;100.00;65435.88;4990018;28;20057;-63
2021/10/04 08:16:50;;;;;;;7.55;2.17;;;;;;;-145.50;100.00;65435.88;4995795;28;20161;-64
2021/10/04 08:19:17;;;;;;;9.20;2.00;;;;;;;-145.50;100.00;65435.88;4987902;28;20418;-63
2021/10/04 08:21:43;;;;;;;10.27;2.05;;;;;;;-145.50;100.00;65435.88;4989773;28;20053;-64
2021/10/04 08:24:10;;;;;;;11.40;1.92;;;;;;;-145.50;100.00;65435.88;4982957;28;20045;-64
2021/10/04 08:26:36;;;;;;;9.13;2.00;;;;;;;-145.50;100.00;65435.88;4997258;28;20058;-64
2021/10/04 08:29:03;;;;;;;6.47;1.98;;;;;;;-145.50;100.00;65435.88;4987568;28;20414;-64
2021/10/04 08:31:32;;;;;;;10.35;2.95;;;;;;;-145.50;100.00;65435.88;4996623;28;20058;-63
2021/10/04 08:34:02;;;;;;;7.57;1.92;;;;;;;-145.50;100.00;65435.88;4993511;28;20046;-63
2021/10/04 08:36:29;;;;;;;7.55;2.30;;;;;;;-145.50;100.00;65435.88;4990951;28;20050;-64
2021/10/04 08:38:56;;;;;;;6.57;1.75;;;;;;;-145.50;100.00;65435.88;4993881;28;20060;-64
2021/10/04 08:41:23;;;;;;;6.80;2.00;;;;;;;-145.50;100.00;65435.88;4991440;28;20468;-64
2021/10/04 08:43:52;;;;;;;10.38;1.95;;;;;;;-145.50;100.00;65435.88;5002478;28;20060;-64
2021/10/04 08:46:20;;;;;;;9.73;2.53;;;;;;;-145.50;100.00;65435.88;4983691;28;20058;-64
2021/10/04 08:48:48;;;;;;;10.88;3.00;;;;;;;-145.50;100.00;65435.88;5003342;28;20046;-64
2021/10/04 08:51:16;;;;;;;10.55;1.95;;;;;;;-145.50;100.00;65435.88;4998453;28;20061;-64
2021/10/04 08:53:44;;;;;;;7.38;1.73;;;;;;;-145.50;100.00;65435.88;4985827;28;20050;-64
2021/10/04 08:56:11;;;;;;;8.32;2.25;;;;;;;-145.50;100.00;65435.88;4996627;28;20069;-63
2021/10/04 08:58:38;;;;;;;7.63;1.75;;;;;;;-145.50;100.00;65435.88;4988233;28;20383;-63
2021/10/04 09:01:05;;;;;;;9.40;1.83;;;;;;;-145.50;100.00;65435.88;4994162;28;20050;-64
2021/10/04 09:04:07;;;;;;;9.07;1.90;;;;;;;-145.50;100.00;65435.88;4996080;28;22773;-64
2021/10/04 09:06:39;;;;;;;12.73;2.10;;;;;;;-145.50;100.00;65435.88;4914356;29;20048;-63
2021/10/04 09:09:10;;;;;;;8.68;1.90;;;;;;;-145.50;100.00;65435.88;4911156;29;20048;-64
2021/10/04 09:11:40;;;;;;;6.43;1.70;;;;;;;-145.50;100.00;65435.88;4922571;29;20067;-64
2021/10/04 09:14:12;;;;;;;12.38;2.30;;;;;;;-145.50;100.00;65435.88;4922256;29;20048;-64
2021/10/04 09:17:07;;;;;;;9.70;2.50;;;;;;;-145.50;100.00;65435.88;4910908;29;20079;-64
2021/10/04 09:19:37;;;;;;;4.45;1.77;;;;;;;-145.50;100.00;65435.88;4911406;29;20056;-64
2021/10/04 09:22:12;;;;;;;13.23;1.70;;;;;;;-145.50;100.00;65435.88;4905876;29;20104;-64
2021/10/04 09:24:57;;;;;;;6.43;1.65;;;;;;;-145.50;100.00;65435.88;4914921;29;20113;-64
2021/10/04 09:27:25;;;;;;;14.57;1.98;;;;;;;-145.50;100.00;65435.88;4908853;29;20062;-64
2021/10/04 09:29:53;;;;;;;14.63;2.43;;;;;;;-145.50;100.00;65435.88;4920356;29;20510;-64
2021/10/04 09:32:40;;;;;;;10.32;2.10;;;;;;;-145.50;100.00;65435.88;4906731;29;20052;-64
2021/10/04 09:35:14;;;;;;;4.95;1.60;;;;;;;-145.50;100.00;65435.88;4915317;29;20052;-64
2021/10/04 09:37:43;;;;;;;10.13;1.95;;;;;;;-145.50;100.00;65435.88;4913595;29;20064;-64
2021/10/04 09:40:28;;;;;;;;;;;;;;;-145.50;100.00;65435.88;4938982;28;20073;-64
2021/10/04 09:42:54;;;;;;;15.10;2.00;;;;;;;-145.50;100.00;65435.88;4992466;28;20302;-64
2021/10/04 09:45:21;;;;;;;6.93;1.95;;;;;;;-145.50;100.00;65435.88;4993950;28;20049;-64
2021/10/04 09:47:49;;;;;;;7.00;1.63;;;;;;;-145.50;100.00;65435.88;4999491;28;20046;-64
2021/10/04 09:50:27;;;;;;;18.38;2.25;;;;;;;-145.50;100.00;65435.88;4990706;28;20072;-64
2021/10/04 09:53:02;;;;;;;6.57;2.30;;;;;;;-145.50;100.00;65435.88;4996364;28;20054;-64
2021/10/04 09:55:37;;;;;;;6.78;1.60;;;;;;;-145.50;100.00;65435.88;4997297;28;20065;-64
2021/10/04 09:58:19;;;;;;;8.65;1.63;;;;;;;-145.50;100.00;65435.88;4995807;28;20050;-64
2021/10/04 10:00:49;;;;;;;13.70;1.83;;;;;;;-145.50;100.00;65435.88;4986470;28;20050;-64
2021/10/04 10:03:18;;;;;;;12.07;1.80;;;;;;;-145.50;100.00;65435.88;4991491;28;20313;-64
2021/10/04 10:05:50;;;;;;;11.02;1.38;;;;;;;-145.50;100.00;65435.88;4999665;28;20149;-64
2021/10/04 10:08:19;;;;;;;14.05;1.60;;;;;;;-145.50;100.00;65435.88;4995564;28;20495;-64
2021/10/04 10:10:46;;;;;;;5.53;1.58;;;;;;;-145.50;100.00;65435.88;4991643;28;20057;-64
2021/10/04 10:13:15;;;;;;;11.82;2.38;;;;;;;-145.50;100.00;65435.88;4989827;28;20054;-64
2021/10/04 10:15:46;;;;;;;7.40;1.30;;;;;;;-145.50;100.00;65435.88;4992580;28;20050;-64
2021/10/04 10:18:19;;;;;;;9.95;1.63;;;;;;;-145.50;100.00;65435.88;4985481;28;20073;-64
2021/10/04 10:20:54;;;;;;;8.40;1.70;;;;;;;-145.50;100.00;65435.88;4999850;28;20061;-64
2021/10/04 10:23:50;;;;;;;7.85;1.45;;;;;;;-145.50;100.00;65435.88;4992204;28;20057;-64
2021/10/04 10:26:44;;;;;;;8.00;1.50;;;;;;;-145.50;100.00;65435.88;4995626;28;20058;-64
2021/10/04 10:29:16;;;;;;;7.03;1.63;;;;;;;-145.50;100.00;65435.88;4980796;28;20054;-64
2021/10/04 10:31:52;;;;;;;6.30;1.30;;;;;;;-145.50;100.00;65435.88;4987870;28;20137;-64
2021/10/04 10:34:34;;;;;;;5.40;1.33;;;;;;;-145.50;100.00;65435.88;4986657;28;20154;-64
2021/10/04 10:37:00;;;;;;;14.07;1.38;;;;;;;-145.50;100.00;65435.88;4994223;28;20046;-64
2021/10/04 10:39:38;;;;;;;8.27;1.30;;;;;;;-145.50;100.00;65435.88;4992557;28;20483;-64
2021/10/04 10:42:31;;;;;;;9.55;1.17;;;;;;;-145.50;100.00;65435.88;4985342;28;20046;-64
2021/10/04 10:44:58;;;;;;;9.52;1.58;;;;;;;-145.50;100.00;65435.88;4987790;28;20046;-64
2021/10/04 10:47:33;;;;;;;8.35;1.10;;;;;;;-145.50;100.00;65435.88;4988565;28;20066;-64
2021/10/04 10:50:08;;;;;;;6.65;1.33;;;;;;;-145.50;100.00;65435.88;4990645;28;20057;-64
2021/10/04 10:52:54;;;;;;;11.68;1.17;;;;;;;-145.50;100.00;65435.88;4990914;28;20482;-64
2021/10/04 10:55:20;;;;;;;4.60;1.00;;;;;;;-145.50;100.00;65435.88;4996270;28;20043;-64
2021/10/04 11:00:24;;;;;;;7.03;1.67;;;;;;;-145.50;100.00;65435.88;4998834;28;20050;-64
2021/10/04 11:02:50;;;;;;;9.63;1.20;;;;;;;-145.50;100.00;65435.88;4992262;28;20050;-65
2021/10/04 11:05:38;;;;;;;7.88;1.15;;;;;;;-145.50;100.00;65435.88;5000182;28;20480;-64
2021/10/04 11:08:13;;;;;;;6.05;1.02;;;;;;;-145.50;100.00;65435.88;4990099;28;20065;-64
2021/10/04 11:10:49;;;;;;;12.02;1.48;;;;;;;-145.50;100.00;65435.88;4986029;28;20077;-65
2021/10/04 11:13:18;;;;;;;7.97;1.27;;;;;;;-145.50;100.00;65435.88;4992411;28;20466;-64
2021/10/04 11:15:45;;;;;;;5.20;1.30;;;;;;;-145.50;100.00;65435.88;4990956;28;20410;-64